Terminal Aerodrome Forecast
Issued by NWS

Home | Current Version | Previous Version | Text Only | Print | Product List | Glossary On
Versions: 1 2 3 4 5 6 7 8 9 10 11 12 13 14
000
FTUS42 KGSP 271720
TAFAND
TAF
KAND 271720Z 2718/2818 23005KT P6SM BKN250
     FM280000 00000KT P6SM BKN250
     FM280800 00000KT 6SM -SHRA OVC021
     FM281000 00000KT 4SM -SHRA BR OVC009
     FM281500 20004KT 2SM -SHRA BR OVC007=

USA.gov is the U.S. government's official web portal to all federal, state and local government web resources and services.